Time;durP1;ratioP1;P1;durP2;ratioP2;P2;SDS_P1;SDS_P2;PMS_P1;PMS_P2;Temp;Humidity;BMP_temperature;BMP_pressure;BME280_temperature;BME280_humidity;BME280_pressure;Samples;Min_cycle;Max_cycle;Signal;HPM_P1;HPM_P2
2023/05/23 00:00:54;;;;;;;13.65;10.63;;;;;;;;;;5051977;28;20036;-36
2023/05/23 00:03:21;;;;;;;11.98;10.77;;;;;;;;;;5053125;28;20021;-36
2023/05/23 00:05:48;;;;;;;14.60;11.07;;;;;;;;;;5050133;28;20023;-36
2023/05/23 00:08:15;;;;;;;12.18;10.38;;;;;;;;;;5051483;28;20017;-36
2023/05/23 00:10:41;;;;;;;11.85;10.52;;;;;;;;;;5051474;28;20078;-36
2023/05/23 00:13:11;;;;;;;14.20;11.93;;;;;;;;;;5051365;28;20025;-36
2023/05/23 00:15:37;;;;;;;13.32;11.52;;;;;;;;;;5051425;28;20033;-36
2023/05/23 00:18:03;;;;;;;13.02;11.00;;;;;;;;;;5051702;28;20469;-36
2023/05/23 00:20:29;;;;;;;16.90;12.15;;;;;;;;;;5051359;28;20067;-36
2023/05/23 00:22:58;;;;;;;14.07;11.20;;;;;;;;;;5051321;28;20104;-36
2023/05/23 00:25:25;;;;;;;15.05;12.52;;;;;;;;;;5051436;28;20021;-35
2023/05/23 00:27:51;;;;;;;16.25;12.07;;;;;;;;;;5051111;28;20028;-37
2023/05/23 00:30:17;;;;;;;17.65;13.32;;;;;;;;;;5051087;28;20482;-36
2023/05/23 00:32:43;;;;;;;20.52;14.25;;;;;;;;;;5051263;28;20025;-37
2023/05/23 00:35:09;;;;;;;16.95;13.93;;;;;;;;;;5051294;28;20476;-37
2023/05/23 00:37:35;;;;;;;17.60;14.90;;;;;;;;;;5051184;28;20025;-36
2023/05/23 00:40:01;;;;;;;16.88;14.07;;;;;;;;;;5050897;28;20435;-36
2023/05/23 00:42:27;;;;;;;20.63;12.50;;;;;;;;;;5051219;28;20025;-37
2023/05/23 00:44:53;;;;;;;14.35;11.75;;;;;;;;;;5049875;28;20057;-36
2023/05/23 00:47:19;;;;;;;14.95;11.15;;;;;;;;;;5052250;28;20106;-36
2023/05/23 00:49:45;;;;;;;14.40;12.13;;;;;;;;;;5055120;28;20044;-36
2023/05/23 00:52:11;;;;;;;16.33;11.50;;;;;;;;;;5054915;28;20057;-36
2023/05/23 00:54:38;;;;;;;14.07;12.05;;;;;;;;;;5053612;28;20113;-36
2023/05/23 00:57:04;;;;;;;14.63;12.25;;;;;;;;;;5054687;28;20024;-36
2023/05/23 00:59:31;;;;;;;15.65;12.05;;;;;;;;;;5054467;28;20369;-36
2023/05/23 01:01:59;;;;;;;16.17;12.55;;;;;;;;;;5054457;28;20021;-36
2023/05/23 01:04:25;;;;;;;14.95;12.60;;;;;;;;;;5054240;28;20028;-36
2023/05/23 01:06:54;;;;;;;13.55;11.45;;;;;;;;;;5054310;28;20017;-36
2023/05/23 01:09:21;;;;;;;15.32;11.88;;;;;;;;;;5054605;28;20025;-36
2023/05/23 01:12:14;;;;;;;16.13;11.73;;;;;;;;;;5054573;28;20080;-36
2023/05/23 01:14:49;;;;;;;16.58;13.27;;;;;;;;;;5054437;28;20025;-37
2023/05/23 01:17:19;;;;;;;15.63;12.55;;;;;;;;;;5054458;28;20017;-37
2023/05/23 01:19:51;;;;;;;15.85;13.43;;;;;;;;;;5053977;28;20025;-36
2023/05/23 01:22:40;;;;;;;18.80;14.38;;;;;;;;;;5054398;28;20029;-37
2023/05/23 01:25:12;;;;;;;16.58;13.63;;;;;;;;;;5048729;28;20036;-36
2023/05/23 01:27:55;;;;;;;13.95;11.57;;;;;;;;;;5054191;28;20025;-37
2023/05/23 01:30:22;;;;;;;14.40;12.63;;;;;;;;;;5054076;28;20063;-36
2023/05/23 01:32:50;;;;;;;14.88;12.80;;;;;;;;;;5052804;28;20025;-37
2023/05/23 01:35:19;;;;;;;15.05;12.05;;;;;;;;;;5053838;28;20029;-38
2023/05/23 01:37:46;;;;;;;13.85;12.10;;;;;;;;;;5054002;28;20021;-37
2023/05/23 01:40:11;;;;;;;17.90;13.55;;;;;;;;;;5053480;28;20048;-37
2023/05/23 01:42:37;;;;;;;18.10;14.50;;;;;;;;;;5053734;28;20493;-38
2023/05/23 01:45:04;;;;;;;16.33;14.15;;;;;;;;;;5053734;28;20024;-37
2023/05/23 01:47:30;;;;;;;18.25;13.73;;;;;;;;;;5052638;28;20027;-38
2023/05/23 01:49:57;;;;;;;20.98;14.10;;;;;;;;;;5054110;28;20289;-38
2023/05/23 01:52:23;;;;;;;19.13;14.90;;;;;;;;;;5053829;28;20822;-37
2023/05/23 01:54:50;;;;;;;20.02;16.05;;;;;;;;;;5053616;28;20099;-36
2023/05/23 01:57:16;;;;;;;19.45;16.83;;;;;;;;;;5053347;28;20029;-37
2023/05/23 01:59:42;;;;;;;23.92;18.35;;;;;;;;;;5053377;28;20033;-36
2023/05/23 02:02:08;;;;;;;23.13;19.35;;;;;;;;;;5053679;28;20112;-37
2023/05/23 02:04:34;;;;;;;21.60;19.27;;;;;;;;;;5053547;28;20021;-37
2023/05/23 02:07:00;;;;;;;22.25;19.90;;;;;;;;;;5053397;28;20428;-36
2023/05/23 02:09:26;;;;;;;25.90;21.83;;;;;;;;;;5053187;28;20191;-36
2023/05/23 02:11:52;;;;;;;26.83;22.10;;;;;;;;;;5053153;28;20447;-36
2023/05/23 02:14:18;;;;;;;27.02;22.70;;;;;;;;;;5053110;28;20021;-37
2023/05/23 02:16:44;;;;;;;24.58;21.95;;;;;;;;;;5053230;28;20088;-36
2023/05/23 02:19:10;;;;;;;32.25;26.55;;;;;;;;;;5052882;28;20021;-36
2023/05/23 02:21:37;;;;;;;33.70;27.23;;;;;;;;;;5053105;28;20111;-36
2023/05/23 02:24:03;;;;;;;33.28;27.17;;;;;;;;;;5053182;28;20028;-36
2023/05/23 02:26:29;;;;;;;38.00;27.30;;;;;;;;;;5053080;28;20029;-37
2023/05/23 02:28:55;;;;;;;35.47;29.27;;;;;;;;;;5052875;28;20044;-36
2023/05/23 02:31:22;;;;;;;39.20;28.35;;;;;;;;;;5052868;28;20021;-37
2023/05/23 02:33:48;;;;;;;44.70;29.05;;;;;;;;;;5052712;28;20482;-37
2023/05/23 02:36:14;;;;;;;37.65;28.05;;;;;;;;;;5052744;28;20474;-36
2023/05/23 02:38:40;;;;;;;40.25;29.00;;;;;;;;;;5052534;28;20029;-37
2023/05/23 02:41:06;;;;;;;38.65;29.05;;;;;;;;;;5051368;28;20358;-37
2023/05/23 02:43:32;;;;;;;45.08;31.33;;;;;;;;;;5052643;28;20028;-37
2023/05/23 02:45:58;;;;;;;44.63;31.58;;;;;;;;;;5052571;28;20028;-37
2023/05/23 02:48:24;;;;;;;42.28;31.70;;;;;;;;;;5052697;28;20075;-37
2023/05/23 02:50:50;;;;;;;43.47;30.05;;;;;;;;;;5052623;28;20132;-37
2023/05/23 02:53:16;;;;;;;44.75;31.00;;;;;;;;;;5052616;28;20588;-37
2023/05/23 02:55:42;;;;;;;48.40;31.92;;;;;;;;;;5052445;28;20029;-37
2023/05/23 02:58:08;;;;;;;40.40;29.17;;;;;;;;;;5052351;28;20120;-37
2023/05/23 03:00:34;;;;;;;42.83;27.40;;;;;;;;;;5052319;28;20021;-37
2023/05/23 03:03:01;;;;;;;47.90;29.83;;;;;;;;;;5052256;28;20381;-37
2023/05/23 03:05:27;;;;;;;46.00;27.92;;;;;;;;;;5052253;28;20106;-37
2023/05/23 03:07:53;;;;;;;44.00;26.20;;;;;;;;;;5052342;28;20481;-37
2023/05/23 03:10:19;;;;;;;43.65;26.77;;;;;;;;;;5051676;28;20028;-37
2023/05/23 03:12:46;;;;;;;34.80;24.30;;;;;;;;;;5052280;28;20357;-37
2023/05/23 03:15:12;;;;;;;40.05;24.40;;;;;;;;;;5052141;28;20028;-36
2023/05/23 03:17:38;;;;;;;37.20;25.08;;;;;;;;;;5052065;28;20113;-36
2023/05/23 03:20:08;;;;;;;39.22;25.00;;;;;;;;;;5051820;28;20037;-37
2023/05/23 03:22:34;;;;;;;37.20;24.42;;;;;;;;;;5051916;28;20048;-36
2023/05/23 03:25:00;;;;;;;39.75;24.10;;;;;;;;;;5051752;28;20056;-36
2023/05/23 03:27:26;;;;;;;37.17;24.70;;;;;;;;;;5051833;28;20021;-37
2023/05/23 03:29:52;;;;;;;38.63;25.63;;;;;;;;;;5051909;28;20040;-36
2023/05/23 03:32:18;;;;;;;36.15;23.75;;;;;;;;;;5051924;28;20049;-36
2023/05/23 03:34:44;;;;;;;37.00;24.58;;;;;;;;;;5051848;28;20083;-36
2023/05/23 03:37:10;;;;;;;40.85;24.40;;;;;;;;;;5052159;28;20024;-37
2023/05/23 03:39:36;;;;;;;35.58;24.08;;;;;;;;;;5051520;28;20081;-36
2023/05/23 03:42:02;;;;;;;39.80;26.10;;;;;;;;;;5051786;28;20078;-36
2023/05/23 03:44:27;;;;;;;38.03;24.15;;;;;;;;;;5051793;28;20023;-37
2023/05/23 03:46:53;;;;;;;38.50;25.45;;;;;;;;;;5051645;28;20025;-36
2023/05/23 03:49:19;;;;;;;34.90;25.00;;;;;;;;;;5051722;28;20029;-36
2023/05/23 03:51:45;;;;;;;36.33;25.13;;;;;;;;;;5050678;28;20021;-37
2023/05/23 03:54:11;;;;;;;35.67;23.83;;;;;;;;;;5051877;28;20341;-36
2023/05/23 03:56:37;;;;;;;32.95;22.63;;;;;;;;;;5051716;28;20022;-36
2023/05/23 03:59:03;;;;;;;32.30;22.42;;;;;;;;;;5051516;28;20075;-36
2023/05/23 04:01:29;;;;;;;33.53;23.20;;;;;;;;;;5051394;28;20131;-36
2023/05/23 04:03:55;;;;;;;40.17;23.00;;;;;;;;;;5051608;28;20424;-36
2023/05/23 04:06:22;;;;;;;37.58;23.00;;;;;;;;;;5050579;28;20515;-36
2023/05/23 04:08:48;;;;;;;33.20;21.90;;;;;;;;;;5050597;28;20497;-37
2023/05/23 04:11:14;;;;;;;36.08;22.50;;;;;;;;;;5051722;28;20021;-37
2023/05/23 04:13:41;;;;;;;32.45;21.92;;;;;;;;;;5051694;28;20096;-37
2023/05/23 04:16:07;;;;;;;30.48;21.65;;;;;;;;;;5051584;28;20033;-37
2023/05/23 04:18:33;;;;;;;33.28;20.92;;;;;;;;;;5051423;28;20104;-37
2023/05/23 04:20:59;;;;;;;33.00;22.05;;;;;;;;;;5051257;28;20029;-37
2023/05/23 04:23:25;;;;;;;36.83;21.98;;;;;;;;;;5054586;28;20021;-36
2023/05/23 04:25:51;;;;;;;30.30;21.90;;;;;;;;;;5055186;28;20030;-36
2023/05/23 04:28:17;;;;;;;35.08;21.48;;;;;;;;;;5055365;28;20385;-36
2023/05/23 04:30:44;;;;;;;33.08;21.77;;;;;;;;;;5055268;28;20021;-36
2023/05/23 04:33:10;;;;;;;35.15;21.42;;;;;;;;;;5056344;28;20029;-36
2023/05/23 04:35:39;;;;;;;36.80;22.23;;;;;;;;;;5055096;28;20053;-36
2023/05/23 04:38:05;;;;;;;33.85;21.73;;;;;;;;;;5056516;28;20083;-37
2023/05/23 04:40:31;;;;;;;40.33;22.17;;;;;;;;;;5054694;28;20049;-36
2023/05/23 04:42:57;;;;;;;37.83;22.25;;;;;;;;;;5056199;28;20381;-37
2023/05/23 04:45:25;;;;;;;38.90;22.40;;;;;;;;;;5055981;28;20021;-36
2023/05/23 04:47:53;;;;;;;39.65;22.98;;;;;;;;;;5056296;28;20020;-37
2023/05/23 04:50:21;;;;;;;33.47;21.60;;;;;;;;;;5055865;28;20473;-36
2023/05/23 04:52:47;;;;;;;39.80;21.92;;;;;;;;;;5055783;28;20033;-36
2023/05/23 04:55:13;;;;;;;41.65;24.35;;;;;;;;;;5054743;28;20032;-36
2023/05/23 04:57:39;;;;;;;36.40;22.10;;;;;;;;;;5055854;28;20043;-36
2023/05/23 05:00:09;;;;;;;32.45;22.15;;;;;;;;;;5055764;28;20029;-37
2023/05/23 05:02:36;;;;;;;37.33;23.77;;;;;;;;;;5055885;28;20028;-38
2023/05/23 05:05:03;;;;;;;36.08;22.08;;;;;;;;;;5055861;28;20021;-38
2023/05/23 05:07:29;;;;;;;49.80;25.40;;;;;;;;;;5055812;28;20032;-35
2023/05/23 05:09:55;;;;;;;41.72;23.70;;;;;;;;;;5055484;28;20025;-36
2023/05/23 05:12:21;;;;;;;41.35;25.40;;;;;;;;;;5055575;28;20039;-38
2023/05/23 05:14:47;;;;;;;44.85;25.33;;;;;;;;;;5055582;28;20028;-38
2023/05/23 05:17:13;;;;;;;42.97;25.77;;;;;;;;;;5055645;28;20028;-37
2023/05/23 05:19:39;;;;;;;44.78;25.23;;;;;;;;;;5055286;28;20474;-38
2023/05/23 05:22:05;;;;;;;42.45;25.75;;;;;;;;;;5055623;28;20066;-38
2023/05/23 05:24:31;;;;;;;45.28;26.42;;;;;;;;;;5055440;28;20104;-37
2023/05/23 05:26:57;;;;;;;40.88;24.55;;;;;;;;;;5055428;28;20017;-39
2023/05/23 05:29:24;;;;;;;43.80;25.65;;;;;;;;;;5055292;28;20052;-36
2023/05/23 05:31:50;;;;;;;44.53;26.33;;;;;;;;;;5055379;28;20095;-36
2023/05/23 05:34:17;;;;;;;48.88;27.60;;;;;;;;;;5054984;28;20440;-38
2023/05/23 05:36:46;;;;;;;45.75;26.35;;;;;;;;;;5054983;28;20024;-37
2023/05/23 05:39:13;;;;;;;51.63;26.90;;;;;;;;;;5054854;28;20040;-36
2023/05/23 05:41:39;;;;;;;51.10;28.45;;;;;;;;;;5053707;28;20033;-37
2023/05/23 05:44:05;;;;;;;52.28;28.85;;;;;;;;;;5055005;28;20021;-37
2023/05/23 05:46:31;;;;;;;52.00;28.92;;;;;;;;;;5055118;28;20029;-36
2023/05/23 05:48:57;;;;;;;48.83;27.98;;;;;;;;;;5055073;28;20524;-38
2023/05/23 05:51:23;;;;;;;46.70;27.55;;;;;;;;;;5054746;28;20111;-36
2023/05/23 05:53:49;;;;;;;45.65;26.33;;;;;;;;;;5054807;28;20021;-38
2023/05/23 05:56:15;;;;;;;42.20;26.85;;;;;;;;;;5053602;28;20112;-37
2023/05/23 05:58:41;;;;;;;43.08;26.25;;;;;;;;;;5054835;28;20112;-36
2023/05/23 06:01:08;;;;;;;43.72;25.83;;;;;;;;;;5054673;28;20027;-37
2023/05/23 06:03:34;;;;;;;46.55;27.98;;;;;;;;;;5054628;28;20028;-37
2023/05/23 06:06:00;;;;;;;49.55;26.73;;;;;;;;;;5054669;28;20021;-38
2023/05/23 06:08:26;;;;;;;41.65;26.17;;;;;;;;;;5054750;28;20025;-35
2023/05/23 06:10:52;;;;;;;49.55;27.08;;;;;;;;;;5054411;28;20032;-36
2023/05/23 06:13:18;;;;;;;50.95;27.10;;;;;;;;;;5054369;28;20039;-37
2023/05/23 06:15:43;;;;;;;45.25;27.45;;;;;;;;;;5053151;28;20378;-37
2023/05/23 06:18:10;;;;;;;51.30;29.20;;;;;;;;;;5054465;28;20040;-38
2023/05/23 06:20:36;;;;;;;48.13;27.83;;;;;;;;;;5054370;28;20092;-37
2023/05/23 06:23:04;;;;;;;49.00;26.38;;;;;;;;;;5054417;28;20116;-37
2023/05/23 06:25:30;;;;;;;50.38;28.42;;;;;;;;;;5052891;28;20064;-38
2023/05/23 06:27:56;;;;;;;54.03;28.75;;;;;;;;;;5054087;28;20461;-37
2023/05/23 06:30:23;;;;;;;48.17;26.08;;;;;;;;;;5054113;28;20025;-37
2023/05/23 06:32:49;;;;;;;52.90;28.60;;;;;;;;;;5054083;28;20085;-37
2023/05/23 06:35:16;;;;;;;51.97;29.25;;;;;;;;;;5053872;28;20107;-37
2023/05/23 06:37:44;;;;;;;45.80;26.33;;;;;;;;;;5052635;28;20436;-37
2023/05/23 06:40:11;;;;;;;46.25;25.85;;;;;;;;;;5053635;28;20045;-39
2023/05/23 06:42:36;;;;;;;47.60;26.13;;;;;;;;;;5053969;28;20033;-37
2023/05/23 06:45:03;;;;;;;44.75;26.88;;;;;;;;;;5053051;28;20071;-37
2023/05/23 06:47:28;;;;;;;47.97;26.27;;;;;;;;;;5054013;28;20091;-38
2023/05/23 06:49:54;;;;;;;35.00;21.38;;;;;;;;;;5053849;28;20033;-37
2023/05/23 06:52:20;;;;;;;38.65;22.90;;;;;;;;;;5053843;28;20491;-38
2023/05/23 06:54:46;;;;;;;32.83;20.80;;;;;;;;;;5053640;28;20107;-37
2023/05/23 06:57:12;;;;;;;36.30;20.65;;;;;;;;;;5053590;28;20021;-37
2023/05/23 06:59:38;;;;;;;35.08;20.60;;;;;;;;;;5053576;28;20033;-38
2023/05/23 07:02:04;;;;;;;34.88;20.13;;;;;;;;;;5053511;28;20083;-35
2023/05/23 07:04:30;;;;;;;30.48;19.75;;;;;;;;;;5052300;28;20028;-37
2023/05/23 07:06:56;;;;;;;33.80;19.17;;;;;;;;;;5053698;28;20192;-37
2023/05/23 07:09:22;;;;;;;26.50;18.52;;;;;;;;;;5053522;28;20021;-37
2023/05/23 07:11:48;;;;;;;21.63;16.00;;;;;;;;;;5053276;28;20370;-37
2023/05/23 07:14:15;;;;;;;22.73;15.05;;;;;;;;;;5053283;28;20428;-38
2023/05/23 07:16:41;;;;;;;30.02;16.63;;;;;;;;;;5053300;28;20024;-38
2023/05/23 07:19:07;;;;;;;25.63;15.40;;;;;;;;;;5053282;28;20029;-37
2023/05/23 07:21:33;;;;;;;22.38;13.55;;;;;;;;;;5053255;28;20035;-36
2023/05/23 07:23:59;;;;;;;19.95;13.25;;;;;;;;;;5053321;28;20029;-37
2023/05/23 07:26:26;;;;;;;17.55;12.45;;;;;;;;;;5053258;28;20017;-38
2023/05/23 07:28:52;;;;;;;15.82;11.05;;;;;;;;;;5053106;28;20112;-38
2023/05/23 07:31:18;;;;;;;14.38;11.15;;;;;;;;;;5051719;28;20127;-36
2023/05/23 07:33:44;;;;;;;15.55;10.18;;;;;;;;;;5053321;28;20036;-37
2023/05/23 07:36:11;;;;;;;14.52;9.82;;;;;;;;;;5052886;28;20079;-36
2023/05/23 07:38:37;;;;;;;14.77;9.30;;;;;;;;;;5052848;28;20394;-38
2023/05/23 07:41:02;;;;;;;11.93;8.70;;;;;;;;;;5052900;28;20041;-36
2023/05/23 07:43:28;;;;;;;11.98;8.15;;;;;;;;;;5052802;28;20470;-36
2023/05/23 07:45:54;;;;;;;10.55;7.85;;;;;;;;;;5052882;28;20378;-37
2023/05/23 07:48:20;;;;;;;10.05;7.78;;;;;;;;;;5053032;28;20442;-37
2023/05/23 07:50:47;;;;;;;12.60;7.72;;;;;;;;;;5052759;28;20090;-37
2023/05/23 07:53:13;;;;;;;13.73;6.90;;;;;;;;;;5052957;28;20466;-37
2023/05/23 07:55:40;;;;;;;10.23;6.72;;;;;;;;;;5052999;28;20025;-37
2023/05/23 07:58:06;;;;;;;9.10;6.03;;;;;;;;;;5057054;28;20025;-36
2023/05/23 08:00:32;;;;;;;8.95;6.80;;;;;;;;;;5056733;28;20078;-37
2023/05/23 08:02:58;;;;;;;13.63;6.65;;;;;;;;;;5056209;28;20100;-38
2023/05/23 08:05:24;;;;;;;8.02;6.25;;;;;;;;;;5056652;28;20044;-36
2023/05/23 08:07:53;;;;;;;10.82;6.28;;;;;;;;;;5056664;28;20381;-36
2023/05/23 08:10:19;;;;;;;8.73;6.40;;;;;;;;;;5055552;28;20036;-36
2023/05/23 08:12:45;;;;;;;8.05;5.90;;;;;;;;;;5056842;28;20048;-36
2023/05/23 08:15:11;;;;;;;9.93;5.88;;;;;;;;;;5057041;28;20466;-37
2023/05/23 08:17:37;;;;;;;11.48;6.28;;;;;;;;;;5056651;28;20110;-37
2023/05/23 08:20:04;;;;;;;10.35;6.43;;;;;;;;;;5056390;28;20085;-36
2023/05/23 08:22:30;;;;;;;7.50;5.80;;;;;;;;;;5055273;28;20017;-38
2023/05/23 08:24:56;;;;;;;7.50;5.40;;;;;;;;;;5056391;28;20108;-37
2023/05/23 08:27:22;;;;;;;8.27;5.30;;;;;;;;;;5056452;28;20090;-36
2023/05/23 08:29:48;;;;;;;8.60;5.00;;;;;;;;;;5056322;28;20029;-37
2023/05/23 08:32:14;;;;;;;6.65;4.90;;;;;;;;;;5056479;28;20079;-38
2023/05/23 08:34:41;;;;;;;11.50;5.10;;;;;;;;;;5054929;28;20024;-38
2023/05/23 08:37:07;;;;;;;8.23;5.03;;;;;;;;;;5056385;28;20032;-36
2023/05/23 08:39:32;;;;;;;7.93;5.50;;;;;;;;;;5056136;28;20071;-37
2023/05/23 08:41:58;;;;;;;7.53;5.10;;;;;;;;;;5056068;28;20513;-36
2023/05/23 08:44:24;;;;;;;10.00;5.75;;;;;;;;;;5056274;28;20492;-36
2023/05/23 08:46:52;;;;;;;8.38;5.40;;;;;;;;;;5056204;28;20032;-36
2023/05/23 08:49:18;;;;;;;7.90;4.95;;;;;;;;;;5056001;28;20060;-37
2023/05/23 08:51:45;;;;;;;6.82;5.13;;;;;;;;;;5055710;28;20131;-37
2023/05/23 08:54:14;;;;;;;7.60;6.07;;;;;;;;;;5056007;28;20057;-37
2023/05/23 08:56:40;;;;;;;8.40;6.22;;;;;;;;;;5055938;28;20108;-37
2023/05/23 08:59:08;;;;;;;9.00;5.72;;;;;;;;;;5055908;28;20090;-37
2023/05/23 09:01:34;;;;;;;8.15;5.13;;;;;;;;;;5055684;28;20106;-36
2023/05/23 09:04:03;;;;;;;8.30;5.55;;;;;;;;;;5055966;28;20021;-36
2023/05/23 09:06:31;;;;;;;8.95;4.75;;;;;;;;;;5055686;28;20555;-36
2023/05/23 09:08:57;;;;;;;6.47;4.80;;;;;;;;;;5054051;28;20053;-37
2023/05/23 09:11:23;;;;;;;6.90;4.88;;;;;;;;;;5054525;28;20491;-37
2023/05/23 09:13:49;;;;;;;9.32;5.10;;;;;;;;;;5055730;28;20025;-38
2023/05/23 09:16:19;;;;;;;9.75;5.05;;;;;;;;;;5055677;28;20113;-38
2023/05/23 09:18:45;;;;;;;11.02;5.32;;;;;;;;;;5054308;28;20071;-37
2023/05/23 09:21:12;;;;;;;8.75;5.78;;;;;;;;;;5055277;28;20033;-38
2023/05/23 09:23:39;;;;;;;8.18;5.13;;;;;;;;;;5055265;28;20079;-37
2023/05/23 09:26:08;;;;;;;13.00;7.53;;;;;;;;;;5055395;28;20084;-37
2023/05/23 09:28:34;;;;;;;10.52;5.68;;;;;;;;;;5054040;28;20021;-36
2023/05/23 09:31:06;;;;;;;13.35;5.43;;;;;;;;;;5055087;28;20393;-36
2023/05/23 09:33:48;;;;;;;8.15;5.03;;;;;;;;;;5055195;28;20025;-36
2023/05/23 09:36:14;;;;;;;10.65;5.30;;;;;;;;;;5055080;28;20360;-37
2023/05/23 09:38:41;;;;;;;11.00;4.97;;;;;;;;;;5054951;28;20029;-36
2023/05/23 09:41:07;;;;;;;13.48;5.57;;;;;;;;;;5054769;28;20482;-43
2023/05/23 09:43:34;;;;;;;12.20;5.00;;;;;;;;;;5053747;28;20025;-40
2023/05/23 09:46:12;;;;;;;8.15;4.90;;;;;;;;;;5053634;28;20044;-42
2023/05/23 09:48:38;;;;;;;8.60;5.03;;;;;;;;;;5053442;28;20029;-40
2023/05/23 09:51:09;;;;;;;13.45;5.50;;;;;;;;;;5053547;28;20029;-39
2023/05/23 09:53:35;;;;;;;9.45;4.78;;;;;;;;;;5053447;28;20025;-40
2023/05/23 09:56:02;;;;;;;9.43;5.07;;;;;;;;;;5053347;28;20029;-40
2023/05/23 09:58:29;;;;;;;8.55;4.55;;;;;;;;;;5053456;28;20128;-39
2023/05/23 10:00:56;;;;;;;6.15;4.50;;;;;;;;;;5053080;28;20056;-40
2023/05/23 10:03:58;;;;;;;10.68;5.00;;;;;;;;;;5052128;28;20362;-42
2023/05/23 10:06:25;;;;;;;8.90;4.20;;;;;;;;;;5031050;28;20025;-43
2023/05/23 10:08:56;;;;;;;10.55;4.78;;;;;;;;;;5048868;28;20608;-40
2023/05/23 10:11:25;;;;;;;6.88;3.92;;;;;;;;;;5053141;28;20075;-40
2023/05/23 10:13:52;;;;;;;7.43;4.03;;;;;;;;;;5053126;28;20025;-41
2023/05/23 10:16:19;;;;;;;9.70;3.58;;;;;;;;;;5053090;28;20036;-40
2023/05/23 10:18:48;;;;;;;8.55;3.55;;;;;;;;;;5052734;28;20533;-43
2023/05/23 10:21:23;;;;;;;13.60;4.00;;;;;;;;;;5052027;28;20039;-41
2023/05/23 10:23:49;;;;;;;6.28;4.10;;;;;;;;;;5052860;28;20082;-43
2023/05/23 10:26:15;;;;;;;8.40;3.78;;;;;;;;;;5052892;28;20056;-40
2023/05/23 10:28:41;;;;;;;7.72;3.08;;;;;;;;;;5052992;28;20044;-40
2023/05/23 10:31:07;;;;;;;6.50;3.30;;;;;;;;;;5052868;28;20028;-46
2023/05/23 10:33:35;;;;;;;7.60;2.83;;;;;;;;;;5052860;28;20036;-41
2023/05/23 10:36:09;;;;;;;8.45;3.40;;;;;;;;;;5051543;28;20067;-41
2023/05/23 10:38:50;;;;;;;6.65;3.00;;;;;;;;;;5052408;28;20021;-42
2023/05/23 10:41:18;;;;;;;7.45;3.47;;;;;;;;;;5052495;28;20048;-39
2023/05/23 10:43:47;;;;;;;7.25;3.47;;;;;;;;;;5052545;28;20033;-43
2023/05/23 10:46:13;;;;;;;8.68;2.95;;;;;;;;;;5052328;28;20029;-44
2023/05/23 10:48:43;;;;;;;9.18;3.78;;;;;;;;;;5052389;28;20021;-43
2023/05/23 10:51:09;;;;;;;8.02;4.00;;;;;;;;;;5052306;28;20473;-42
2023/05/23 10:53:36;;;;;;;10.25;3.65;;;;;;;;;;5052513;28;20071;-39
2023/05/23 10:56:05;;;;;;;9.35;3.92;;;;;;;;;;5051986;28;20064;-42
2023/05/23 10:58:31;;;;;;;6.90;3.38;;;;;;;;;;5051070;28;20060;-39
2023/05/23 11:00:59;;;;;;;9.27;3.03;;;;;;;;;;5051673;28;20071;-43
2023/05/23 11:03:45;;;;;;;13.57;4.43;;;;;;;;;;5051575;28;20420;-43
2023/05/23 11:06:31;;;;;;;9.55;3.83;;;;;;;;;;5048129;28;20429;-41
2023/05/23 11:09:09;;;;;;;8.35;3.22;;;;;;;;;;5051961;28;20032;-41
2023/05/23 11:11:53;;;;;;;7.40;3.30;;;;;;;;;;5051778;28;20025;-41
2023/05/23 11:14:32;;;;;;;8.90;3.30;;;;;;;;;;5051789;28;20029;-40
2023/05/23 11:16:58;;;;;;;13.10;3.97;;;;;;;;;;5051782;28;20021;-43
2023/05/23 11:19:29;;;;;;;12.38;4.13;;;;;;;;;;5051828;28;20037;-40
2023/05/23 11:21:57;;;;;;;7.40;3.28;;;;;;;;;;5051635;28;20032;-40
2023/05/23 11:24:23;;;;;;;8.00;3.72;;;;;;;;;;5051708;28;20047;-41
2023/05/23 11:26:58;;;;;;;15.48;4.20;;;;;;;;;;5051464;28;20540;-41
2023/05/23 11:29:25;;;;;;;10.13;4.03;;;;;;;;;;5051585;28;20024;-44
2023/05/23 11:31:51;;;;;;;9.90;3.58;;;;;;;;;;5051319;28;20033;-41
2023/05/23 11:34:18;;;;;;;10.43;3.53;;;;;;;;;;5051459;28;20112;-42
2023/05/23 11:36:44;;;;;;;9.15;3.67;;;;;;;;;;5051453;28;20024;-39
2023/05/23 11:39:11;;;;;;;12.02;3.65;;;;;;;;;;5049934;28;20547;-40
2023/05/23 11:41:38;;;;;;;11.07;3.60;;;;;;;;;;5051385;28;20132;-39
2023/05/23 11:44:11;;;;;;;10.77;4.13;;;;;;;;;;5051509;28;20079;-40
2023/05/23 11:46:39;;;;;;;8.45;3.20;;;;;;;;;;5051484;28;20033;-41
2023/05/23 11:49:09;;;;;;;12.15;3.92;;;;;;;;;;5051335;28;20424;-41
2023/05/23 11:51:35;;;;;;;11.23;4.28;;;;;;;;;;5050390;28;20347;-44
2023/05/23 11:54:01;;;;;;;6.93;3.65;;;;;;;;;;5051595;28;20612;-42
2023/05/23 11:56:27;;;;;;;11.55;3.47;;;;;;;;;;5051504;28;20021;-41
2023/05/23 11:58:55;;;;;;;15.20;3.75;;;;;;;;;;5051333;28;20033;-40
2023/05/23 12:01:21;;;;;;;10.07;3.60;;;;;;;;;;5051231;28;20072;-41
2023/05/23 12:03:47;;;;;;;15.48;3.85;;;;;;;;;;5051085;28;20067;-41
2023/05/23 12:06:20;;;;;;;12.40;3.88;;;;;;;;;;5051320;28;20025;-41
2023/05/23 12:08:47;;;;;;;10.98;3.80;;;;;;;;;;5051419;28;20464;-41
2023/05/23 12:11:13;;;;;;;12.27;3.92;;;;;;;;;;5051539;28;20052;-41
2023/05/23 12:13:41;;;;;;;14.00;3.83;;;;;;;;;;5051226;28;20496;-43
2023/05/23 12:16:07;;;;;;;11.18;3.72;;;;;;;;;;5051198;28;20029;-42
2023/05/23 12:18:34;;;;;;;11.77;3.60;;;;;;;;;;5051456;28;20411;-40
2023/05/23 12:21:02;;;;;;;14.48;4.53;;;;;;;;;;5051116;28;20032;-42
2023/05/23 12:23:28;;;;;;;12.52;5.25;;;;;;;;;;5051253;28;20025;-42
2023/05/23 12:25:55;;;;;;;12.30;3.92;;;;;;;;;;5051279;28;20040;-41
2023/05/23 12:28:22;;;;;;;14.05;3.80;;;;;;;;;;5050018;28;20021;-41
2023/05/23 12:30:48;;;;;;;13.25;3.72;;;;;;;;;;5051180;28;20104;-43
2023/05/23 12:33:14;;;;;;;13.45;4.20;;;;;;;;;;5051317;28;20550;-41
2023/05/23 12:35:44;;;;;;;10.07;3.88;;;;;;;;;;5051559;28;20452;-44
2023/05/23 12:38:15;;;;;;;10.93;3.78;;;;;;;;;;5050900;28;20496;-42
2023/05/23 12:40:41;;;;;;;13.47;3.60;;;;;;;;;;5050766;28;20092;-41
2023/05/23 12:43:08;;;;;;;14.60;3.53;;;;;;;;;;5051838;28;20033;-42
2023/05/23 12:45:35;;;;;;;12.85;4.00;;;;;;;;;;5054706;28;20481;-42
2023/05/23 12:48:02;;;;;;;14.23;4.13;;;;;;;;;;5054630;28;20070;-41
2023/05/23 12:50:28;;;;;;;9.95;3.65;;;;;;;;;;5054542;28;20031;-41
2023/05/23 12:52:54;;;;;;;15.70;3.78;;;;;;;;;;5054737;28;20163;-40
2023/05/23 12:55:20;;;;;;;10.13;3.60;;;;;;;;;;5054836;28;20107;-39
2023/05/23 12:57:47;;;;;;;9.05;3.25;;;;;;;;;;5054302;28;20044;-43
2023/05/23 13:00:13;;;;;;;13.93;3.65;;;;;;;;;;5054702;28;20035;-45
2023/05/23 13:02:39;;;;;;;7.30;3.42;;;;;;;;;;5054469;28;20083;-40
2023/05/23 13:05:06;;;;;;;9.73;3.42;;;;;;;;;;5054628;28;20017;-43
2023/05/23 13:07:32;;;;;;;11.48;3.75;;;;;;;;;;5054442;28;20025;-42
2023/05/23 13:09:57;;;;;;;11.25;3.63;;;;;;;;;;5052950;28;20032;-43
2023/05/23 13:12:24;;;;;;;10.77;3.65;;;;;;;;;;5054049;28;20040;-43
2023/05/23 13:14:50;;;;;;;9.10;3.38;;;;;;;;;;5054040;28;20449;-42
2023/05/23 13:17:16;;;;;;;23.25;4.47;;;;;;;;;;5054111;28;20029;-43
2023/05/23 13:19:42;;;;;;;11.02;4.22;;;;;;;;;;5053844;28;20044;-43
2023/05/23 13:22:12;;;;;;;9.35;3.75;;;;;;;;;;5052721;28;20470;-41
2023/05/23 13:24:38;;;;;;;13.60;4.63;;;;;;;;;;5053806;28;20033;-42
2023/05/23 13:27:04;;;;;;;11.88;4.38;;;;;;;;;;5053789;28;20147;-41
2023/05/23 13:29:31;;;;;;;8.85;4.35;;;;;;;;;;5053659;28;20489;-42
2023/05/23 13:31:57;;;;;;;8.00;3.28;;;;;;;;;;5053929;28;20109;-42
2023/05/23 13:34:23;;;;;;;12.77;4.57;;;;;;;;;;5053871;28;20032;-41
2023/05/23 13:36:49;;;;;;;11.43;3.95;;;;;;;;;;5053712;28;20466;-42
2023/05/23 13:39:15;;;;;;;10.35;3.78;;;;;;;;;;5053365;28;20045;-42
2023/05/23 13:41:41;;;;;;;14.52;4.32;;;;;;;;;;5053469;28;20478;-40
2023/05/23 13:44:07;;;;;;;14.70;4.60;;;;;;;;;;5052232;28;20469;-40
2023/05/23 13:46:33;;;;;;;14.48;4.28;;;;;;;;;;5053521;28;20104;-40
2023/05/23 13:49:00;;;;;;;16.95;4.18;;;;;;;;;;5053479;28;20094;-42
2023/05/23 13:51:26;;;;;;;12.55;4.15;;;;;;;;;;5053605;28;20024;-42
2023/05/23 13:53:52;;;;;;;10.73;3.85;;;;;;;;;;5053189;28;20397;-41
2023/05/23 13:56:17;;;;;;;12.77;3.97;;;;;;;;;;5053337;28;20056;-40
2023/05/23 13:58:45;;;;;;;13.20;4.57;;;;;;;;;;5053185;28;20033;-42
2023/05/23 14:01:11;;;;;;;9.75;3.97;;;;;;;;;;5053228;28;20052;-41
2023/05/23 14:03:37;;;;;;;16.38;4.93;;;;;;;;;;5053239;28;20036;-41
2023/05/23 14:06:03;;;;;;;10.85;4.00;;;;;;;;;;5053286;28;20029;-41
2023/05/23 14:08:30;;;;;;;11.80;3.88;;;;;;;;;;5052980;28;20381;-44
2023/05/23 14:10:56;;;;;;;14.32;4.13;;;;;;;;;;5053044;28;20029;-40
2023/05/23 14:13:23;;;;;;;8.93;4.10;;;;;;;;;;5051844;28;20485;-41
2023/05/23 14:15:48;;;;;;;14.20;4.50;;;;;;;;;;5053146;28;20036;-41
2023/05/23 14:18:14;;;;;;;14.85;5.13;;;;;;;;;;5053209;28;20438;-42
2023/05/23 14:20:40;;;;;;;18.08;4.60;;;;;;;;;;5052998;28;20456;-40
2023/05/23 14:23:06;;;;;;;13.35;4.75;;;;;;;;;;5051579;28;20090;-41
2023/05/23 14:25:32;;;;;;;20.55;6.25;;;;;;;;;;5052732;28;20108;-41